Flight Track Log - Related Links

Times and Time Zones

All times are in EDT time to prevent confusion due to time zone crossing. See the N1811Y flight status page for this flight to view local times or setup timezone preferences in your user account.

Time Position Orientation Groundspeed Altitude Reporting Facility
EDT Latitude Longitude Course Direction KTS MPH feet Rate Location/Type
Mon 07:54:41 AM 28.4333 -82.5000 18° North 134 154 2,300  Level Tampa TRACON
Mon 07:55:23 AM 28.4500 -82.5000 360° North 134 154 2,700 625 Climbing Tampa TRACON
Mon 07:56:17 AM 28.4833 -82.5000 360° North 138 159 3,300 700 Climbing Tampa TRACON
Mon 07:57:23 AM 28.5333 -82.4833 16° North 142 163 4,100 655 Climbing Tampa TRACON
Mon 07:58:07 AM 28.5583 -82.4742 18° North 139 160 4,500 571 Climbing Jacksonville Center
Mon 07:59:08 AM 28.5978 -82.4669 North 142 163 5,100 639 Climbing Jacksonville Center
Mon 08:00:00 AM 28.5772 -82.4065 18° North  Level FlightAware Approximate
Mon 08:00:09 AM 28.6333 -82.4525 20° North 137 158 5,800  Level Jacksonville Center
Mon 08:01:10 AM 28.6750 -82.4383 17° North 144 166 6,000 52 Climbing Jacksonville Center
Mon 08:02:04 AM 28.7167 -82.4406 357° North 167 192 5,900 -52 Descending Jacksonville Center
Mon 08:03:05 AM 28.7628 -82.4403 360° North 171 197 5,900  Level Jacksonville Center
Mon 08:04:06 AM 28.8106 -82.4375 North 173 199 5,900  Level Jacksonville Center
Mon 08:05:13 AM 28.8628 -82.4397 358° North 173 199 5,900  Level Jacksonville Center
Mon 08:06:14 AM 28.9150 -82.4394 360° North 173 199 5,900  Level Jacksonville Center
Mon 08:07:15 AM 28.9631 -82.4392 360° North 173 199 5,900  Level Jacksonville Center
Mon 08:08:09 AM 29.0069 -82.4367 North 173 199 5,900  Level Jacksonville Center
Mon 08:09:16 AM 29.0592 -82.4389 358° North 173 199 5,900  Level Jacksonville Center
Mon 08:10:11 AM 29.1028 -82.4386 360° North 171 197 5,900  Level Jacksonville Center
Mon 08:11:24 AM 29.1614 -82.4383 360° North 170 196 5,900  Level Jacksonville Center
Mon 08:12:25 AM 29.2094 -82.4358 North 171 197 5,900  Level Jacksonville Center
Mon 08:13:13 AM 29.2469 -82.4356 360° North 173 199 5,900  Level Jacksonville Center
Mon 08:14:14 AM 29.2969 -82.4353 360° North 173 199 5,900  Level Jacksonville Center
Mon 08:15:21 AM 29.3492 -82.4375 358° North 172 198 5,900  Level Jacksonville Center
Mon 08:16:16 AM 29.3931 -82.4350 North 173 199 5,900  Level Jacksonville Center
Mon 08:17:17 AM 29.4411 -82.4372 358° North 171 197 5,900  Level Jacksonville Center
Mon 08:18:36 AM 29.5036 -82.4367 360° North 172 198 5,900  Level Jacksonville Center
Mon 08:19:30 AM 29.5497 -82.4367 360° North 173 199 5,900  Level Jacksonville Center
Mon 08:20:31 AM 29.5975 -82.4339 North 173 199 5,900  Level Jacksonville Center
Mon 08:21:38 AM 29.6539 -82.4336 360° North 174 200 5,900  Level Jacksonville Center
Mon 08:22:35 AM 29.6936 -82.4358 357° North 185 213 5,900 51 Level Jacksonville Center
Mon 08:23:35 AM 29.7417 -82.4356 360° North 185 213 6,000 50 Climbing Jacksonville Center
Mon 08:24:35 AM 29.7917 -82.4356 360° North 175 201 6,000  Level Jacksonville Center
Mon 08:25:35 AM 29.8378 -82.4328 North 175 201 6,000  Level Jacksonville Center
Mon 08:26:35 AM 29.8858 -82.4325 360° North 175 201 6,000  Level Jacksonville Center
Mon 08:27:35 AM 29.9358 -82.4347 358° North 175 201 6,000  Level Jacksonville Center
Mon 08:28:35 AM 29.9817 -82.4322 North 175 201 6,000  Level Jacksonville Center
Mon 08:29:35 AM 30.0339 -82.4344 358° North 175 201 6,000  Level Jacksonville Center
Mon 08:30:35 AM 30.0819 -82.4342 360° North 175 201 6,000  Level Jacksonville Center
Mon 08:31:35 AM 30.1319 -82.4314 North 175 201 6,000  Level Jacksonville Center
Mon 08:32:35 AM 30.1800 -82.4311 360° North 175 201 6,000  Level Jacksonville Center
Mon 08:33:35 AM 30.2281 -82.4311 360° North 175 201 6,000  Level Jacksonville Center
Mon 08:34:35 AM 30.2844 -82.4308 360° North 175 201 6,000  Level Jacksonville Center
Mon 08:35:35 AM 30.3347 -82.4306 360° North 175 201 6,000  Level Jacksonville Center
Mon 08:36:35 AM 30.3825 -82.4303 360° North 174 200 6,000  Level Jacksonville Center
Mon 08:37:35 AM 30.4328 -82.4300 360° North 174 200 6,000  Level Jacksonville Center
Mon 08:38:35 AM 30.4828 -82.4297 360° North 174 200 6,000  Level Jacksonville Center
Mon 08:39:35 AM 30.5331 -82.4319 358° North 179 206 6,000  Level Jacksonville Center
Mon 08:40:35 AM 30.5808 -82.4292 North 179 206 6,000  Level Jacksonville Center
Mon 08:41:35 AM 30.6311 -82.4289 360° North 179 206 6,000  Level Jacksonville Center
Mon 08:42:35 AM 30.6811 -82.4289 360° North 179 206 6,000  Level Jacksonville Center
Mon 08:43:35 AM 30.7292 -82.4286 360° North 179 206 6,000  Level Jacksonville Center
Mon 08:44:35 AM 30.7814 -82.4308 358° North 179 206 6,000  Level Jacksonville Center
Mon 08:45:35 AM 30.8294 -82.4306 360° North 179 206 6,000  Level Jacksonville Center
Mon 08:46:35 AM 30.8794 -82.4303 360° North 179 206 6,000  Level Jacksonville Center
Mon 08:47:35 AM 30.9317 -82.4300 360° North 179 206 6,000 50 Level Jacksonville Center
Mon 08:48:35 AM 30.9797 -82.4297 360° North 179 206 6,100 200 Climbing Jacksonville Center
Mon 08:49:35 AM 31.0278 -82.4294 360° North 179 206 6,400 300 Climbing Jacksonville Center
Mon 08:50:35 AM 31.0717 -82.4292 360° North 173 199 6,700 250 Climbing Jacksonville Center
Mon 08:51:35 AM 31.1156 -82.4317 357° North 162 186 6,900 150 Climbing Jacksonville Center
Mon 08:52:35 AM 31.1594 -82.4314 360° North 157 181 7,000 50 Climbing Jacksonville Center
Mon 08:53:35 AM 31.2072 -82.4311 360° North 162 186 7,000  Level Jacksonville Center
Mon 08:54:35 AM 31.2553 -82.4283 North 162 186 7,000  Level Jacksonville Center
Mon 08:55:35 AM 31.3033 -82.4258 North 162 186 7,000  Level Jacksonville Center
Mon 08:56:35 AM 31.3494 -82.4281 358° North 162 186 7,000  Level Jacksonville Center
Mon 08:57:35 AM 31.3953 -82.4253 North 167 192 7,000  Level Jacksonville Center
Mon 08:58:35 AM 31.4453 -82.4250 360° North 172 198 7,000  Level Jacksonville Center
Mon 08:59:35 AM 31.4933 -82.4247 360° North 172 198 7,000  Level Jacksonville Center
Mon 09:00:35 AM 31.5394 -82.4244 360° North 177 204 7,000  Level Jacksonville Center
Mon 09:01:35 AM 31.5894 -82.4267 358° North 172 198 7,000  Level Jacksonville Center
Mon 09:02:35 AM 31.6417 -82.4264 360° North 179 206 7,000  Level Jacksonville Center
Mon 09:03:35 AM 31.6875 -82.4261 360° North 179 206 7,000  Level Jacksonville Center
Mon 09:04:35 AM 31.7336 -82.4236 North 174 200 7,000  Level Jacksonville Center
Mon 09:05:35 AM 31.7897 -82.4258 358° North 180 207 7,000  Level Jacksonville Center
Mon 09:06:35 AM 31.8358 -82.4256 360° North 174 200 7,000  Level Jacksonville Center
Mon 09:07:35 AM 31.8839 -82.4228 North 174 200 7,000  Level Jacksonville Center
Mon 09:08:35 AM 31.9361 -82.4250 358° North 179 206 7,000  Level Jacksonville Center
Mon 09:09:35 AM 31.9797 -82.4222 North 172 198 7,000  Level Jacksonville Center
Mon 09:10:35 AM 32.0300 -82.4244 358° North 172 198 7,000  Level Jacksonville Center
Mon 09:11:35 AM 32.0800 -82.4242 360° North 177 204 7,000  Level Jacksonville Center
Mon 09:12:35 AM 32.1322 -82.4239 360° North 176 203 7,000  Level Jacksonville Center
Mon 09:13:53 AM 32.2014 -82.4236 360° North 177 204 7,000  Level Atlanta Center
Mon 09:14:53 AM 32.2411 -82.4231 North 182 209 7,000  Level Atlanta Center
Mon 09:15:53 AM 32.2933 -82.4244 359° North 176 203 7,000  Level Atlanta Center
Mon 09:16:53 AM 32.3433 -82.4186 North 176 203 7,000  Level Atlanta Center
Mon 09:17:53 AM 32.3933 -82.4203 358° North 176 203 7,000  Level Atlanta Center
Mon 09:18:53 AM 32.4497 -82.4217 359° North 176 203 7,000  Level Atlanta Center
Mon 09:19:53 AM 32.5000 -82.4208 North 176 203 7,000  Level Atlanta Center
Mon 09:20:53 AM 32.5500 -82.4197 North 176 203 7,000  Level Atlanta Center
Mon 09:21:53 AM 32.6000 -82.4189 North 176 203 7,000  Level Atlanta Center
Mon 09:22:53 AM 32.6522 -82.4206 358° North 176 203 7,000  Level Atlanta Center
Mon 09:23:53 AM 32.7044 -82.4169 North 176 203 7,000  Level Atlanta Center
Mon 09:24:53 AM 32.7544 -82.4186 358° North 176 203 7,000  Level Atlanta Center
Mon 09:25:53 AM 32.8047 -82.4175 North 176 203 7,000  Level Atlanta Center
Mon 09:26:53 AM 32.8547 -82.4192 358° North 176 203 7,000  Level Atlanta Center
Mon 09:27:53 AM 32.9047 -82.4183 North 176 203 7,000  Level Atlanta Center
Mon 09:28:53 AM 32.9550 -82.4197 359° North 176 203 7,000  Level Atlanta Center
Mon 09:29:53 AM 33.0069 -82.4189 North 176 203 7,000  Level Atlanta Center
Mon 09:30:53 AM 33.0572 -82.4178 North 176 203 7,000  Level Atlanta Center
Mon 09:31:53 AM 33.1094 -82.4169 North 176 203 7,000  Level Atlanta Center
Mon 09:33:00 AM 33.1634 -82.4169 North  Level FlightAware Approximate
Mon 09:40:00 AM 33.5018 -82.4168 North  Level FlightAware Approximate
Mon 09:41:00 AM 33.5501 -82.4168 North  Level FlightAware Approximate
Mon 09:42:00 AM 33.5984 -82.4168 North  Level FlightAware Approximate
Mon 09:43:00 AM 33.6468 -82.4168 North  Level FlightAware Approximate
Mon 09:44:00 AM 33.6951 -82.4168 North  Level FlightAware Approximate
Mon 09:45:00 AM 33.7434 -82.4167 North  Level FlightAware Approximate
Mon 09:46:00 AM 33.7918 -82.4167 North  Level FlightAware Approximate
Mon 09:47:00 AM 33.8401 -82.4167 North  Level FlightAware Approximate
Mon 09:48:00 AM 33.8884 -82.4167 North  Level FlightAware Approximate
Mon 09:49:00 AM 33.9368 -82.4167 North  Level FlightAware Approximate
Mon 09:50:00 AM 33.9851 -82.4167 North  Level FlightAware Approximate
Mon 09:51:00 AM 34.0335 -82.4167 North  Level FlightAware Approximate
Mon 09:52:00 AM 34.0818 -82.4167 North  Level FlightAware Approximate
Mon 09:53:00 AM 34.1301 -82.4162 North  Level FlightAware Approximate
Mon 09:54:00 AM 34.1784 -82.4153 North  Level FlightAware Approximate
Mon 09:55:00 AM 34.2268 -82.4145 North  Level FlightAware Approximate
Mon 09:56:00 AM 34.2751 -82.4137 North  Level FlightAware Approximate
Mon 09:57:00 AM 34.3234 -82.4128 North  Level FlightAware Approximate
Mon 09:58:00 AM 34.3718 -82.4120 North  Level FlightAware Approximate
Mon 09:59:00 AM 34.4201 -82.4112 North  Level FlightAware Approximate
Mon 10:00:00 AM 34.4684 -82.4104 North  Level FlightAware Approximate
Mon 10:01:00 AM 34.5168 -82.4095 North  Level FlightAware Approximate
Mon 10:02:00 AM 34.5651 -82.4087 North  Level FlightAware Approximate
Mon 10:03:00 AM 34.6134 -82.4079 North  Level FlightAware Approximate
Mon 10:04:00 AM 34.6617 -82.4070 North  Level FlightAware Approximate
Mon 10:05:00 AM 34.7101 -82.4062 North  Level FlightAware Approximate
Mon 10:06:00 AM 34.7584 -82.4054 North  Level FlightAware Approximate
Mon 10:07:00 AM 34.8072 -82.4045 North  Level FlightAware Approximate
Mon 10:08:00 AM 34.8560 -82.4037 North  Level FlightAware Approximate
Mon 10:09:00 AM 34.9047 -82.4028 North  Level FlightAware Approximate
Mon 10:10:00 AM 34.9535 -82.4020 North  Level FlightAware Approximate
Mon 10:11:00 AM 35.0023 -82.4011 North  Level FlightAware Approximate
Mon 10:12:00 AM 35.0511 -82.4003 North  Level FlightAware Approximate
Mon 10:13:00 AM 35.0998 -82.4000 North  Level FlightAware Approximate
Mon 10:14:00 AM 35.1486 -82.4000 North  Level FlightAware Approximate
Mon 10:15:00 AM 35.1974 -82.4000 North  Level FlightAware Approximate
Mon 10:16:00 AM 35.2462 -82.4000 North  Level FlightAware Approximate
Mon 10:17:00 AM 35.2950 -82.4000 North  Level FlightAware Approximate
Mon 10:18:00 AM 35.3438 -82.4000 North  Level FlightAware Approximate
Mon 10:19:00 AM 35.3925 -82.4000 North  Level FlightAware Approximate
Mon 10:20:00 AM 35.4413 -82.4000 North  Level FlightAware Approximate
Mon 10:21:00 AM 35.4901 -82.4000 North  Level FlightAware Approximate
Mon 10:22:00 AM 35.5389 -82.4000 North  Level FlightAware Approximate
Mon 10:23:00 AM 35.5877 -82.4000 North  Level FlightAware Approximate
Mon 10:24:00 AM 35.6365 -82.4000 North  Level FlightAware Approximate
Mon 10:25:00 AM 35.6852 -82.4000 North  Level FlightAware Approximate
Mon 10:26:00 AM 35.7340 -82.4000 North  Level FlightAware Approximate
Mon 10:27:00 AM 35.7828 -82.4000 North  Level FlightAware Approximate
Mon 10:28:00 AM 35.8316 -82.4000 North  Level FlightAware Approximate
Mon 10:29:00 AM 35.8804 -82.4000 North  Level FlightAware Approximate
Mon 10:30:00 AM 35.9291 -82.4000 North  Level FlightAware Approximate
Mon 10:31:00 AM 35.9779 -82.4000 North  Level FlightAware Approximate
Mon 10:32:00 AM 36.0267 -82.4000 North  Level FlightAware Approximate
Mon 10:33:00 AM 36.0755 -82.4000 North  Level FlightAware Approximate
Mon 10:34:00 AM 36.1243 -82.4000 North  Level FlightAware Approximate
Mon 10:35:00 AM 36.1731 -82.4000 North  Level FlightAware Approximate
Mon 10:36:00 AM 36.2218 -82.4000 North  Level FlightAware Approximate
Mon 10:37:00 AM 36.2706 -82.4000 North  Level FlightAware Approximate
Mon 10:38:00 AM 36.3194 -82.4000 North  Level FlightAware Approximate
Mon 10:39:00 AM 36.3682 -82.4000 North  Level FlightAware Approximate
Mon 10:40:00 AM 36.4170 -82.4000 North  Level FlightAware Approximate
Mon 10:41:00 AM 36.4658 -82.4000 North  Level FlightAware Approximate
Mon 10:42:00 AM 36.4667 -82.4000 North  Level FlightAware Approximate
Mon 10:43:00 AM 36.4752 -82.4074 325° Northwest  Level Estimated
Mon 10:44:00 AM 36.4752 -82.4074 North  Level Estimated
Mon 10:45:00 AM 36.4752 -82.4074 North  Level Estimated
Mon 10:46:00 AM 36.4752 -82.4074 North  Level Estimated
Mon 10:47:00 AM 36.4752 -82.4074 North  Level Estimated

Login

Don't have an account? Register now (free) for customized features, flight alerts, and more!